sensor_id;sensor_type;location;lat;lon;timestamp;temperature;humidity
4755;DHT22;2391;47.212;7.542;2022-08-19T00:01:33;23.20;92.90
4755;DHT22;2391;47.212;7.542;2022-08-19T00:04:02;23.20;92.80
4755;DHT22;2391;47.212;7.542;2022-08-19T00:06:29;23.20;92.90
4755;DHT22;2391;47.212;7.542;2022-08-19T00:08:56;23.20;92.90
4755;DHT22;2391;47.212;7.542;2022-08-19T00:11:23;23.20;92.90
4755;DHT22;2391;47.212;7.542;2022-08-19T00:13:49;23.20;92.80
4755;DHT22;2391;47.212;7.542;2022-08-19T00:16:16;23.20;93.10
4755;DHT22;2391;47.212;7.542;2022-08-19T00:18:44;23.10;93.30
4755;DHT22;2391;47.212;7.542;2022-08-19T00:21:10;23.10;93.40
4755;DHT22;2391;47.212;7.542;2022-08-19T00:23:36;23.10;93.40
4755;DHT22;2391;47.212;7.542;2022-08-19T00:26:04;23.10;93.20
4755;DHT22;2391;47.212;7.542;2022-08-19T00:28:31;23.10;93.40
4755;DHT22;2391;47.212;7.542;2022-08-19T00:30:57;23.10;93.30
4755;DHT22;2391;47.212;7.542;2022-08-19T00:33:23;23.10;93.40
4755;DHT22;2391;47.212;7.542;2022-08-19T00:35:48;23.20;93.50
4755;DHT22;2391;47.212;7.542;2022-08-19T00:38:14;23.20;93.40
4755;DHT22;2391;47.212;7.542;2022-08-19T00:40:43;23.20;93.40
4755;DHT22;2391;47.212;7.542;2022-08-19T00:43:11;23.20;93.30
4755;DHT22;2391;47.212;7.542;2022-08-19T00:45:40;23.10;93.40
4755;DHT22;2391;47.212;7.542;2022-08-19T00:48:10;23.10;93.40
4755;DHT22;2391;47.212;7.542;2022-08-19T00:50:38;23.10;93.50
4755;DHT22;2391;47.212;7.542;2022-08-19T00:53:06;23.10;93.50
4755;DHT22;2391;47.212;7.542;2022-08-19T00:55:32;23.10;93.40
4755;DHT22;2391;47.212;7.542;2022-08-19T00:58:06;23.10;93.40
4755;DHT22;2391;47.212;7.542;2022-08-19T01:00:33;23.10;93.60
4755;DHT22;2391;47.212;7.542;2022-08-19T01:03:01;23.10;93.60
4755;DHT22;2391;47.212;7.542;2022-08-19T01:05:27;23.10;93.50
4755;DHT22;2391;47.212;7.542;2022-08-19T01:07:56;23.10;93.70
4755;DHT22;2391;47.212;7.542;2022-08-19T01:10:27;23.10;93.80
4755;DHT22;2391;47.212;7.542;2022-08-19T01:12:55;23.10;93.70
4755;DHT22;2391;47.212;7.542;2022-08-19T01:15:34;23.10;93.60
4755;DHT22;2391;47.212;7.542;2022-08-19T01:18:04;23.10;93.60
4755;DHT22;2391;47.212;7.542;2022-08-19T01:20:30;23.10;93.60
4755;DHT22;2391;47.212;7.542;2022-08-19T01:22:58;23.10;93.70
4755;DHT22;2391;47.212;7.542;2022-08-19T01:25:39;23.00;93.70
4755;DHT22;2391;47.212;7.542;2022-08-19T01:28:02;22.90;93.70
4755;DHT22;2391;47.212;7.542;2022-08-19T01:30:32;22.90;93.70
4755;DHT22;2391;47.212;7.542;2022-08-19T01:32:58;22.90;93.70
4755;DHT22;2391;47.212;7.542;2022-08-19T01:35:28;22.90;93.70
4755;DHT22;2391;47.212;7.542;2022-08-19T01:37:57;22.90;93.90
4755;DHT22;2391;47.212;7.542;2022-08-19T01:40:26;22.90;93.90
4755;DHT22;2391;47.212;7.542;2022-08-19T01:42:53;22.80;93.90
4755;DHT22;2391;47.212;7.542;2022-08-19T01:45:22;22.90;94.10
4755;DHT22;2391;47.212;7.542;2022-08-19T01:47:48;22.90;94.30
4755;DHT22;2391;47.212;7.542;2022-08-19T01:50:14;22.90;94.20
4755;DHT22;2391;47.212;7.542;2022-08-19T01:52:41;22.90;94.10
4755;DHT22;2391;47.212;7.542;2022-08-19T01:55:11;22.90;93.90
4755;DHT22;2391;47.212;7.542;2022-08-19T01:57:37;22.90;93.90
4755;DHT22;2391;47.212;7.542;2022-08-19T02:00:07;22.90;93.90
4755;DHT22;2391;47.212;7.542;2022-08-19T02:02:34;22.90;93.90
4755;DHT22;2391;47.212;7.542;2022-08-19T02:05:00;22.80;93.90
4755;DHT22;2391;47.212;7.542;2022-08-19T02:07:25;22.80;94.10
4755;DHT22;2391;47.212;7.542;2022-08-19T02:09:52;22.80;94.20
4755;DHT22;2391;47.212;7.542;2022-08-19T02:12:18;22.80;94.20
4755;DHT22;2391;47.212;7.542;2022-08-19T02:14:44;22.90;94.10
4755;DHT22;2391;47.212;7.542;2022-08-19T02:17:09;22.80;94.10
4755;DHT22;2391;47.212;7.542;2022-08-19T02:19:35;22.80;94.10
4755;DHT22;2391;47.212;7.542;2022-08-19T02:22:01;22.90;94.20
4755;DHT22;2391;47.212;7.542;2022-08-19T02:24:27;22.90;94.00
4755;DHT22;2391;47.212;7.542;2022-08-19T02:26:53;22.90;93.90
4755;DHT22;2391;47.212;7.542;2022-08-19T02:29:19;22.90;94.10
4755;DHT22;2391;47.212;7.542;2022-08-19T02:31:46;22.90;94.10
4755;DHT22;2391;47.212;7.542;2022-08-19T02:34:12;22.90;94.00
4755;DHT22;2391;47.212;7.542;2022-08-19T02:36:38;23.00;93.90
4755;DHT22;2391;47.212;7.542;2022-08-19T02:39:04;23.00;94.00
4755;DHT22;2391;47.212;7.542;2022-08-19T02:41:32;23.00;94.00
4755;DHT22;2391;47.212;7.542;2022-08-19T02:44:00;22.90;94.00
4755;DHT22;2391;47.212;7.542;2022-08-19T02:46:29;22.90;94.20
4755;DHT22;2391;47.212;7.542;2022-08-19T02:48:58;22.80;94.30
4755;DHT22;2391;47.212;7.542;2022-08-19T02:51:31;22.80;94.20
4755;DHT22;2391;47.212;7.542;2022-08-19T02:53:53;22.80;94.30
4755;DHT22;2391;47.212;7.542;2022-08-19T02:56:19;22.80;94.30
4755;DHT22;2391;47.212;7.542;2022-08-19T02:58:46;22.80;94.40
4755;DHT22;2391;47.212;7.542;2022-08-19T03:01:29;22.80;94.40
4755;DHT22;2391;47.212;7.542;2022-08-19T03:03:52;22.80;94.40
4755;DHT22;2391;47.212;7.542;2022-08-19T03:06:19;22.80;94.40
4755;DHT22;2391;47.212;7.542;2022-08-19T03:08:46;22.80;94.40
4755;DHT22;2391;47.212;7.542;2022-08-19T03:11:14;22.80;94.70
4755;DHT22;2391;47.212;7.542;2022-08-19T03:13:40;22.80;94.40
4755;DHT22;2391;47.212;7.542;2022-08-19T03:16:06;22.80;94.40
4755;DHT22;2391;47.212;7.542;2022-08-19T03:18:32;22.80;94.30
4755;DHT22;2391;47.212;7.542;2022-08-19T03:20:58;22.80;94.30
4755;DHT22;2391;47.212;7.542;2022-08-19T03:23:24;22.80;94.40
4755;DHT22;2391;47.212;7.542;2022-08-19T03:25:51;22.80;94.50
4755;DHT22;2391;47.212;7.542;2022-08-19T03:28:17;22.80;94.50
4755;DHT22;2391;47.212;7.542;2022-08-19T03:30:58;22.80;94.50
4755;DHT22;2391;47.212;7.542;2022-08-19T03:33:22;22.70;94.60
4755;DHT22;2391;47.212;7.542;2022-08-19T03:36:03;22.70;94.70
4755;DHT22;2391;47.212;7.542;2022-08-19T03:38:27;22.50;94.80
4755;DHT22;2391;47.212;7.542;2022-08-19T03:40:52;22.50;94.90
4755;DHT22;2391;47.212;7.542;2022-08-19T03:43:18;22.40;95.00
4755;DHT22;2391;47.212;7.542;2022-08-19T03:45:44;22.50;95.20
4755;DHT22;2391;47.212;7.542;2022-08-19T03:48:10;22.50;95.20
4755;DHT22;2391;47.212;7.542;2022-08-19T03:50:40;22.50;95.20
4755;DHT22;2391;47.212;7.542;2022-08-19T03:53:06;22.40;95.20
4755;DHT22;2391;47.212;7.542;2022-08-19T03:55:38;22.40;95.30
4755;DHT22;2391;47.212;7.542;2022-08-19T03:58:02;22.30;95.30
4755;DHT22;2391;47.212;7.542;2022-08-19T04:00:27;22.40;95.40
4755;DHT22;2391;47.212;7.542;2022-08-19T04:02:53;22.40;95.40
4755;DHT22;2391;47.212;7.542;2022-08-19T04:05:19;22.40;95.40
4755;DHT22;2391;47.212;7.542;2022-08-19T04:07:46;22.40;95.50
4755;DHT22;2391;47.212;7.542;2022-08-19T04:10:11;22.30;95.50
4755;DHT22;2391;47.212;7.542;2022-08-19T04:12:37;22.30;95.50
4755;DHT22;2391;47.212;7.542;2022-08-19T04:15:04;22.30;95.60
4755;DHT22;2391;47.212;7.542;2022-08-19T04:17:31;22.30;95.60
4755;DHT22;2391;47.212;7.542;2022-08-19T04:19:58;22.30;95.60
4755;DHT22;2391;47.212;7.542;2022-08-19T04:22:23;22.30;95.50
4755;DHT22;2391;47.212;7.542;2022-08-19T04:24:49;22.30;95.50
4755;DHT22;2391;47.212;7.542;2022-08-19T04:27:15;22.30;95.40
4755;DHT22;2391;47.212;7.542;2022-08-19T04:29:42;22.40;95.30
4755;DHT22;2391;47.212;7.542;2022-08-19T04:32:07;22.40;95.40
4755;DHT22;2391;47.212;7.542;2022-08-19T04:34:34;22.40;95.20
4755;DHT22;2391;47.212;7.542;2022-08-19T04:37:00;22.40;95.10
4755;DHT22;2391;47.212;7.542;2022-08-19T04:39:29;22.30;95.10
4755;DHT22;2391;47.212;7.542;2022-08-19T04:42:14;22.30;95.20
4755;DHT22;2391;47.212;7.542;2022-08-19T04:44:58;22.20;94.90
4755;DHT22;2391;47.212;7.542;2022-08-19T04:47:24;22.00;94.90
4755;DHT22;2391;47.212;7.542;2022-08-19T04:49:50;21.90;95.20
4755;DHT22;2391;47.212;7.542;2022-08-19T04:52:16;21.80;95.40
4755;DHT22;2391;47.212;7.542;2022-08-19T04:54:42;21.80;95.50
4755;DHT22;2391;47.212;7.542;2022-08-19T04:57:08;21.70;95.60
4755;DHT22;2391;47.212;7.542;2022-08-19T04:59:36;21.60;95.60
4755;DHT22;2391;47.212;7.542;2022-08-19T05:02:03;21.60;95.90
4755;DHT22;2391;47.212;7.542;2022-08-19T05:04:29;21.60;96.00
4755;DHT22;2391;47.212;7.542;2022-08-19T05:06:58;21.70;96.00
4755;DHT22;2391;47.212;7.542;2022-08-19T05:09:24;21.70;95.90
4755;DHT22;2391;47.212;7.542;2022-08-19T05:11:50;21.80;95.70
4755;DHT22;2391;47.212;7.542;2022-08-19T05:14:17;21.70;95.60
4755;DHT22;2391;47.212;7.542;2022-08-19T05:16:45;21.80;95.70
4755;DHT22;2391;47.212;7.542;2022-08-19T05:19:10;21.90;95.80
4755;DHT22;2391;47.212;7.542;2022-08-19T05:21:55;21.90;96.00
4755;DHT22;2391;47.212;7.542;2022-08-19T05:24:39;21.90;95.50
4755;DHT22;2391;47.212;7.542;2022-08-19T05:27:05;22.00;95.50
4755;DHT22;2391;47.212;7.542;2022-08-19T05:29:32;22.00;95.50
4755;DHT22;2391;47.212;7.542;2022-08-19T05:32:00;22.00;95.50
4755;DHT22;2391;47.212;7.542;2022-08-19T05:34:26;22.00;95.40
4755;DHT22;2391;47.212;7.542;2022-08-19T05:36:56;22.10;95.40
4755;DHT22;2391;47.212;7.542;2022-08-19T05:39:26;22.20;95.40
4755;DHT22;2391;47.212;7.542;2022-08-19T05:41:57;22.20;95.10
4755;DHT22;2391;47.212;7.542;2022-08-19T05:44:25;22.20;95.10
4755;DHT22;2391;47.212;7.542;2022-08-19T05:46:52;22.20;95.10
4755;DHT22;2391;47.212;7.542;2022-08-19T05:49:22;22.20;95.10
4755;DHT22;2391;47.212;7.542;2022-08-19T05:51:48;22.20;94.70
4755;DHT22;2391;47.212;7.542;2022-08-19T05:54:15;22.20;94.90
4755;DHT22;2391;47.212;7.542;2022-08-19T05:56:42;22.20;95.10
4755;DHT22;2391;47.212;7.542;2022-08-19T05:59:09;22.20;94.80
4755;DHT22;2391;47.212;7.542;2022-08-19T06:01:38;22.20;94.80
4755;DHT22;2391;47.212;7.542;2022-08-19T06:04:05;22.20;94.80
4755;DHT22;2391;47.212;7.542;2022-08-19T06:06:32;22.20;94.90
4755;DHT22;2391;47.212;7.542;2022-08-19T06:09:01;22.20;95.00
4755;DHT22;2391;47.212;7.542;2022-08-19T06:11:43;22.20;95.00
4755;DHT22;2391;47.212;7.542;2022-08-19T06:14:17;22.20;95.10
4755;DHT22;2391;47.212;7.542;2022-08-19T06:16:40;22.30;95.10
4755;DHT22;2391;47.212;7.542;2022-08-19T06:19:09;22.30;95.00
4755;DHT22;2391;47.212;7.542;2022-08-19T06:21:38;22.30;94.90
4755;DHT22;2391;47.212;7.542;2022-08-19T06:24:06;22.30;94.90
4755;DHT22;2391;47.212;7.542;2022-08-19T06:26:34;22.30;95.00
4755;DHT22;2391;47.212;7.542;2022-08-19T06:29:01;22.40;94.90
4755;DHT22;2391;47.212;7.542;2022-08-19T06:31:29;22.30;95.00
4755;DHT22;2391;47.212;7.542;2022-08-19T06:33:56;22.30;95.10
4755;DHT22;2391;47.212;7.542;2022-08-19T06:36:28;22.30;95.30
4755;DHT22;2391;47.212;7.542;2022-08-19T06:38:56;22.30;95.30
4755;DHT22;2391;47.212;7.542;2022-08-19T06:41:28;22.30;95.20
4755;DHT22;2391;47.212;7.542;2022-08-19T06:43:52;22.30;95.10
4755;DHT22;2391;47.212;7.542;2022-08-19T06:46:18;22.30;95.20
4755;DHT22;2391;47.212;7.542;2022-08-19T06:48:45;22.30;95.20
4755;DHT22;2391;47.212;7.542;2022-08-19T06:51:14;22.40;95.40
4755;DHT22;2391;47.212;7.542;2022-08-19T06:53:41;22.30;95.20
4755;DHT22;2391;47.212;7.542;2022-08-19T06:56:09;22.30;95.10
4755;DHT22;2391;47.212;7.542;2022-08-19T06:58:35;22.20;95.20
4755;DHT22;2391;47.212;7.542;2022-08-19T07:01:02;22.20;95.10
4755;DHT22;2391;47.212;7.542;2022-08-19T07:03:30;22.20;95.20
4755;DHT22;2391;47.212;7.542;2022-08-19T07:05:57;22.20;95.40
4755;DHT22;2391;47.212;7.542;2022-08-19T07:08:22;22.20;95.50
4755;DHT22;2391;47.212;7.542;2022-08-19T07:10:49;22.20;95.50
4755;DHT22;2391;47.212;7.542;2022-08-19T07:13:15;22.20;95.50
4755;DHT22;2391;47.212;7.542;2022-08-19T07:15:41;22.10;95.80
4755;DHT22;2391;47.212;7.542;2022-08-19T07:18:07;21.90;96.10
4755;DHT22;2391;47.212;7.542;2022-08-19T07:20:33;21.80;96.60
4755;DHT22;2391;47.212;7.542;2022-08-19T07:22:58;21.70;96.80
4755;DHT22;2391;47.212;7.542;2022-08-19T07:25:24;21.60;97.10
4755;DHT22;2391;47.212;7.542;2022-08-19T07:27:50;21.50;97.10
4755;DHT22;2391;47.212;7.542;2022-08-19T07:30:16;21.50;97.40
4755;DHT22;2391;47.212;7.542;2022-08-19T07:32:42;21.50;97.60
4755;DHT22;2391;47.212;7.542;2022-08-19T07:35:09;21.60;97.60
4755;DHT22;2391;47.212;7.542;2022-08-19T07:37:36;21.70;97.60
4755;DHT22;2391;47.212;7.542;2022-08-19T07:40:07;21.70;97.30
4755;DHT22;2391;47.212;7.542;2022-08-19T07:42:33;21.60;97.30
4755;DHT22;2391;47.212;7.542;2022-08-19T07:44:59;21.60;97.50
4755;DHT22;2391;47.212;7.542;2022-08-19T07:47:24;21.70;97.60
4755;DHT22;2391;47.212;7.542;2022-08-19T07:49:50;21.70;97.30
4755;DHT22;2391;47.212;7.542;2022-08-19T07:52:17;21.50;97.40
4755;DHT22;2391;47.212;7.542;2022-08-19T07:54:42;21.40;97.80
4755;DHT22;2391;47.212;7.542;2022-08-19T07:57:08;21.30;98.00
4755;DHT22;2391;47.212;7.542;2022-08-19T07:59:34;21.30;98.10
4755;DHT22;2391;47.212;7.542;2022-08-19T08:02:01;21.40;98.10
4755;DHT22;2391;47.212;7.542;2022-08-19T08:04:29;21.40;98.10
4755;DHT22;2391;47.212;7.542;2022-08-19T08:07:14;21.50;98.10
4755;DHT22;2391;47.212;7.542;2022-08-19T08:09:59;21.60;98.10
4755;DHT22;2391;47.212;7.542;2022-08-19T08:12:29;21.70;97.80
4755;DHT22;2391;47.212;7.542;2022-08-19T08:14:58;21.80;97.70
4755;DHT22;2391;47.212;7.542;2022-08-19T08:17:28;21.90;97.50
4755;DHT22;2391;47.212;7.542;2022-08-19T08:19:55;21.90;97.20
4755;DHT22;2391;47.212;7.542;2022-08-19T08:22:23;21.90;97.00
4755;DHT22;2391;47.212;7.542;2022-08-19T08:25:14;22.00;96.90
4755;DHT22;2391;47.212;7.542;2022-08-19T08:27:43;22.00;97.10
4755;DHT22;2391;47.212;7.542;2022-08-19T08:30:26;22.00;97.20
4755;DHT22;2391;47.212;7.542;2022-08-19T08:32:40;22.00;97.30
4755;DHT22;2391;47.212;7.542;2022-08-19T08:35:08;22.00;97.20
4755;DHT22;2391;47.212;7.542;2022-08-19T08:37:34;22.00;97.40
4755;DHT22;2391;47.212;7.542;2022-08-19T08:40:07;22.10;97.20
4755;DHT22;2391;47.212;7.542;2022-08-19T08:42:36;22.10;97.10
4755;DHT22;2391;47.212;7.542;2022-08-19T08:45:10;22.20;97.00
4755;DHT22;2391;47.212;7.542;2022-08-19T08:47:35;22.20;96.90
4755;DHT22;2391;47.212;7.542;2022-08-19T08:50:14;22.10;97.00
4755;DHT22;2391;47.212;7.542;2022-08-19T08:52:45;22.10;97.20
4755;DHT22;2391;47.212;7.542;2022-08-19T08:55:15;22.00;97.40
4755;DHT22;2391;47.212;7.542;2022-08-19T09:00:27;21.80;97.90
4755;DHT22;2391;47.212;7.542;2022-08-19T09:02:54;21.70;98.10
4755;DHT22;2391;47.212;7.542;2022-08-19T09:05:23;21.80;98.40
4755;DHT22;2391;47.212;7.542;2022-08-19T09:08:08;21.80;98.30
4755;DHT22;2391;47.212;7.542;2022-08-19T09:15:58;21.90;98.00
4755;DHT22;2391;47.212;7.542;2022-08-19T09:18:38;22.00;97.90
4755;DHT22;2391;47.212;7.542;2022-08-19T09:20:57;22.00;98.00
4755;DHT22;2391;47.212;7.542;2022-08-19T09:23:25;22.10;98.00
4755;DHT22;2391;47.212;7.542;2022-08-19T09:25:51;22.10;98.00
4755;DHT22;2391;47.212;7.542;2022-08-19T09:28:17;22.20;98.20
4755;DHT22;2391;47.212;7.542;2022-08-19T09:30:43;22.20;98.00
4755;DHT22;2391;47.212;7.542;2022-08-19T09:33:09;22.20;97.90
4755;DHT22;2391;47.212;7.542;2022-08-19T09:35:48;22.20;97.80
4755;DHT22;2391;47.212;7.542;2022-08-19T09:38:16;22.20;97.80
4755;DHT22;2391;47.212;7.542;2022-08-19T09:40:42;22.10;97.90
4755;DHT22;2391;47.212;7.542;2022-08-19T09:43:08;22.10;97.90
4755;DHT22;2391;47.212;7.542;2022-08-19T09:45:35;22.10;98.00
4755;DHT22;2391;47.212;7.542;2022-08-19T09:48:02;22.20;98.00
4755;DHT22;2391;47.212;7.542;2022-08-19T09:50:28;22.20;98.00
4755;DHT22;2391;47.212;7.542;2022-08-19T09:56:48;22.40;97.90
4755;DHT22;2391;47.212;7.542;2022-08-19T10:07:51;22.50;97.90
4755;DHT22;2391;47.212;7.542;2022-08-19T10:10:17;22.60;97.90
4755;DHT22;2391;47.212;7.542;2022-08-19T10:12:43;22.60;97.90
4755;DHT22;2391;47.212;7.542;2022-08-19T10:15:24;22.70;97.80
4755;DHT22;2391;47.212;7.542;2022-08-19T10:20:36;22.70;97.50
4755;DHT22;2391;47.212;7.542;2022-08-19T10:22:57;22.70;97.50
4755;DHT22;2391;47.212;7.542;2022-08-19T10:25:25;22.80;97.70
4755;DHT22;2391;47.212;7.542;2022-08-19T10:27:52;22.70;98.10
4755;DHT22;2391;47.212;7.542;2022-08-19T10:30:19;22.70;97.50
4755;DHT22;2391;47.212;7.542;2022-08-19T10:32:45;22.60;97.60
4755;DHT22;2391;47.212;7.542;2022-08-19T10:35:12;22.60;98.00
4755;DHT22;2391;47.212;7.542;2022-08-19T10:37:39;22.70;98.30
4755;DHT22;2391;47.212;7.542;2022-08-19T10:40:06;22.70;98.20
4755;DHT22;2391;47.212;7.542;2022-08-19T10:42:34;22.80;98.10
4755;DHT22;2391;47.212;7.542;2022-08-19T10:45:00;22.80;98.10
4755;DHT22;2391;47.212;7.542;2022-08-19T10:47:27;22.80;98.10
4755;DHT22;2391;47.212;7.542;2022-08-19T10:49:54;22.80;97.90
4755;DHT22;2391;47.212;7.542;2022-08-19T10:52:40;22.80;97.90
4755;DHT22;2391;47.212;7.542;2022-08-19T10:58:36;22.80;98.20
4755;DHT22;2391;47.212;7.542;2022-08-19T11:13:49;22.80;97.60
4755;DHT22;2391;47.212;7.542;2022-08-19T11:16:18;22.80;97.70
4755;DHT22;2391;47.212;7.542;2022-08-19T11:18:48;22.80;97.70
4755;DHT22;2391;47.212;7.542;2022-08-19T11:21:20;22.90;97.80
4755;DHT22;2391;47.212;7.542;2022-08-19T11:23:49;22.90;97.70
4755;DHT22;2391;47.212;7.542;2022-08-19T11:26:16;22.90;97.60
4755;DHT22;2391;47.212;7.542;2022-08-19T11:28:43;22.90;97.50
4755;DHT22;2391;47.212;7.542;2022-08-19T11:31:15;22.80;97.60
4755;DHT22;2391;47.212;7.542;2022-08-19T11:43:46;22.50;98.30
4755;DHT22;2391;47.212;7.542;2022-08-19T11:46:14;22.60;98.40
4755;DHT22;2391;47.212;7.542;2022-08-19T11:48:40;22.60;98.50
4755;DHT22;2391;47.212;7.542;2022-08-19T11:51:12;22.60;98.60
4755;DHT22;2391;47.212;7.542;2022-08-19T11:53:39;22.50;98.70
4755;DHT22;2391;47.212;7.542;2022-08-19T11:56:06;22.40;98.70
4755;DHT22;2391;47.212;7.542;2022-08-19T11:58:33;22.30;99.00
4755;DHT22;2391;47.212;7.542;2022-08-19T12:01:00;22.30;99.30
4755;DHT22;2391;47.212;7.542;2022-08-19T12:03:26;22.30;99.50
4755;DHT22;2391;47.212;7.542;2022-08-19T12:05:53;22.40;99.80
4755;DHT22;2391;47.212;7.542;2022-08-19T12:08:20;22.40;99.90
4755;DHT22;2391;47.212;7.542;2022-08-19T12:10:46;22.50;99.90
4755;DHT22;2391;47.212;7.542;2022-08-19T12:13:13;22.60;99.90
4755;DHT22;2391;47.212;7.542;2022-08-19T12:15:41;22.60;99.90
4755;DHT22;2391;47.212;7.542;2022-08-19T12:18:08;22.70;99.90
4755;DHT22;2391;47.212;7.542;2022-08-19T12:20:37;22.70;99.90
4755;DHT22;2391;47.212;7.542;2022-08-19T12:23:05;22.80;99.60
4755;DHT22;2391;47.212;7.542;2022-08-19T12:25:33;22.90;99.60
4755;DHT22;2391;47.212;7.542;2022-08-19T12:28:00;23.00;99.60
4755;DHT22;2391;47.212;7.542;2022-08-19T12:30:26;23.10;99.40
4755;DHT22;2391;47.212;7.542;2022-08-19T12:32:53;23.20;99.30
4755;DHT22;2391;47.212;7.542;2022-08-19T12:35:19;23.20;99.00
4755;DHT22;2391;47.212;7.542;2022-08-19T12:37:46;23.20;99.00
4755;DHT22;2391;47.212;7.542;2022-08-19T12:40:14;23.20;98.60
4755;DHT22;2391;47.212;7.542;2022-08-19T12:42:40;23.20;98.70
4755;DHT22;2391;47.212;7.542;2022-08-19T12:45:11;23.20;98.70
4755;DHT22;2391;47.212;7.542;2022-08-19T12:47:38;23.20;98.80
4755;DHT22;2391;47.212;7.542;2022-08-19T12:50:05;23.30;98.90
4755;DHT22;2391;47.212;7.542;2022-08-19T12:52:36;23.30;98.80
4755;DHT22;2391;47.212;7.542;2022-08-19T12:55:07;23.30;98.60
4755;DHT22;2391;47.212;7.542;2022-08-19T12:57:33;23.30;98.50
4755;DHT22;2391;47.212;7.542;2022-08-19T13:00:07;23.40;98.30
4755;DHT22;2391;47.212;7.542;2022-08-19T13:02:36;23.40;98.50
4755;DHT22;2391;47.212;7.542;2022-08-19T13:05:03;23.30;99.00
4755;DHT22;2391;47.212;7.542;2022-08-19T13:07:30;23.20;99.10
4755;DHT22;2391;47.212;7.542;2022-08-19T13:09:56;23.10;99.50
4755;DHT22;2391;47.212;7.542;2022-08-19T13:12:22;22.80;99.90
4755;DHT22;2391;47.212;7.542;2022-08-19T13:14:50;22.60;99.90
4755;DHT22;2391;47.212;7.542;2022-08-19T13:17:17;22.50;99.90
4755;DHT22;2391;47.212;7.542;2022-08-19T13:19:43;22.50;99.90
4755;DHT22;2391;47.212;7.542;2022-08-19T13:22:09;22.50;99.90
4755;DHT22;2391;47.212;7.542;2022-08-19T13:24:35;22.50;99.90
4755;DHT22;2391;47.212;7.542;2022-08-19T13:27:02;22.40;99.90
4755;DHT22;2391;47.212;7.542;2022-08-19T13:29:28;22.40;99.90
4755;DHT22;2391;47.212;7.542;2022-08-19T13:32:12;22.40;99.90
4755;DHT22;2391;47.212;7.542;2022-08-19T13:34:57;22.50;99.90
4755;DHT22;2391;47.212;7.542;2022-08-19T13:37:23;22.60;99.90
4755;DHT22;2391;47.212;7.542;2022-08-19T13:39:51;22.70;99.90
4755;DHT22;2391;47.212;7.542;2022-08-19T13:42:17;22.70;99.90
4755;DHT22;2391;47.212;7.542;2022-08-19T13:44:44;22.70;99.90
4755;DHT22;2391;47.212;7.542;2022-08-19T13:47:10;22.60;99.90
4755;DHT22;2391;47.212;7.542;2022-08-19T13:49:38;22.60;99.90
4755;DHT22;2391;47.212;7.542;2022-08-19T13:52:04;22.50;99.90
4755;DHT22;2391;47.212;7.542;2022-08-19T13:54:30;22.30;99.90
4755;DHT22;2391;47.212;7.542;2022-08-19T13:56:56;22.00;99.90
4755;DHT22;2391;47.212;7.542;2022-08-19T13:59:22;21.70;99.90
4755;DHT22;2391;47.212;7.542;2022-08-19T14:01:48;21.50;99.90
4755;DHT22;2391;47.212;7.542;2022-08-19T14:04:14;21.50;99.90
4755;DHT22;2391;47.212;7.542;2022-08-19T14:06:40;21.70;99.90
4755;DHT22;2391;47.212;7.542;2022-08-19T14:09:05;21.90;99.90
4755;DHT22;2391;47.212;7.542;2022-08-19T14:11:33;22.10;99.90
4755;DHT22;2391;47.212;7.542;2022-08-19T14:13:59;22.20;99.90
4755;DHT22;2391;47.212;7.542;2022-08-19T14:16:25;22.40;99.90
4755;DHT22;2391;47.212;7.542;2022-08-19T14:18:52;22.60;99.90
4755;DHT22;2391;47.212;7.542;2022-08-19T14:21:23;22.70;99.90
4755;DHT22;2391;47.212;7.542;2022-08-19T14:23:51;22.80;99.90
4755;DHT22;2391;47.212;7.542;2022-08-19T14:26:17;22.90;99.90
4755;DHT22;2391;47.212;7.542;2022-08-19T14:28:44;22.90;99.90
4755;DHT22;2391;47.212;7.542;2022-08-19T14:31:12;22.90;99.90
4755;DHT22;2391;47.212;7.542;2022-08-19T14:33:38;22.90;99.90
4755;DHT22;2391;47.212;7.542;2022-08-19T14:36:06;22.80;99.90
4755;DHT22;2391;47.212;7.542;2022-08-19T14:38:32;22.70;99.90
4755;DHT22;2391;47.212;7.542;2022-08-19T14:43:47;22.60;99.90
4755;DHT22;2391;47.212;7.542;2022-08-19T14:46:19;22.70;99.90
4755;DHT22;2391;47.212;7.542;2022-08-19T14:48:46;22.80;99.40
4755;DHT22;2391;47.212;7.542;2022-08-19T14:51:12;22.80;99.20
4755;DHT22;2391;47.212;7.542;2022-08-19T14:53:40;22.90;99.20
4755;DHT22;2391;47.212;7.542;2022-08-19T14:56:11;23.00;99.30
4755;DHT22;2391;47.212;7.542;2022-08-19T14:58:38;23.10;99.00
4755;DHT22;2391;47.212;7.542;2022-08-19T15:01:06;23.00;98.70
4755;DHT22;2391;47.212;7.542;2022-08-19T15:03:33;23.10;98.70
4755;DHT22;2391;47.212;7.542;2022-08-19T15:06:00;23.20;98.80
4755;DHT22;2391;47.212;7.542;2022-08-19T15:08:29;23.20;98.60
4755;DHT22;2391;47.212;7.542;2022-08-19T15:10:57;23.10;98.80
4755;DHT22;2391;47.212;7.542;2022-08-19T15:13:24;23.20;98.80
4755;DHT22;2391;47.212;7.542;2022-08-19T15:15:50;23.20;98.70
4755;DHT22;2391;47.212;7.542;2022-08-19T15:18:17;23.20;98.70
4755;DHT22;2391;47.212;7.542;2022-08-19T15:20:43;23.20;98.90
4755;DHT22;2391;47.212;7.542;2022-08-19T15:23:10;23.20;98.90
4755;DHT22;2391;47.212;7.542;2022-08-19T15:25:36;23.30;98.90
4755;DHT22;2391;47.212;7.542;2022-08-19T15:28:02;23.20;98.40
4755;DHT22;2391;47.212;7.542;2022-08-19T15:30:29;23.20;98.70
4755;DHT22;2391;47.212;7.542;2022-08-19T15:32:56;23.10;98.90
4755;DHT22;2391;47.212;7.542;2022-08-19T15:35:23;23.00;98.90
4755;DHT22;2391;47.212;7.542;2022-08-19T15:37:51;22.80;98.90
4755;DHT22;2391;47.212;7.542;2022-08-19T15:40:18;22.70;99.10
4755;DHT22;2391;47.212;7.542;2022-08-19T15:42:44;22.50;99.60
4755;DHT22;2391;47.212;7.542;2022-08-19T15:45:12;22.30;99.70
4755;DHT22;2391;47.212;7.542;2022-08-19T15:47:39;22.20;99.90
4755;DHT22;2391;47.212;7.542;2022-08-19T15:52:34;22.20;99.90
4755;DHT22;2391;47.212;7.542;2022-08-19T15:55:00;22.40;99.90
4755;DHT22;2391;47.212;7.542;2022-08-19T15:57:27;22.50;99.50
4755;DHT22;2391;47.212;7.542;2022-08-19T15:59:55;22.60;99.20
4755;DHT22;2391;47.212;7.542;2022-08-19T16:02:39;22.70;99.10
4755;DHT22;2391;47.212;7.542;2022-08-19T16:05:25;22.70;99.10
4755;DHT22;2391;47.212;7.542;2022-08-19T16:08:10;22.70;98.60
4755;DHT22;2391;47.212;7.542;2022-08-19T16:10:37;22.80;98.70
4755;DHT22;2391;47.212;7.542;2022-08-19T16:13:04;22.80;98.80
4755;DHT22;2391;47.212;7.542;2022-08-19T16:15:30;22.80;98.80
4755;DHT22;2391;47.212;7.542;2022-08-19T16:17:58;22.80;99.10
4755;DHT22;2391;47.212;7.542;2022-08-19T16:20:26;22.80;99.10
4755;DHT22;2391;47.212;7.542;2022-08-19T16:22:53;22.80;99.10
4755;DHT22;2391;47.212;7.542;2022-08-19T16:25:19;22.80;99.10
4755;DHT22;2391;47.212;7.542;2022-08-19T16:27:45;22.80;99.10
4755;DHT22;2391;47.212;7.542;2022-08-19T16:30:11;22.90;99.10
4755;DHT22;2391;47.212;7.542;2022-08-19T16:32:41;22.90;99.10
4755;DHT22;2391;47.212;7.542;2022-08-19T16:35:07;22.90;99.20
4755;DHT22;2391;47.212;7.542;2022-08-19T16:37:33;23.00;99.00
4755;DHT22;2391;47.212;7.542;2022-08-19T16:39:59;23.00;99.10
4755;DHT22;2391;47.212;7.542;2022-08-19T16:42:25;23.00;98.90
4755;DHT22;2391;47.212;7.542;2022-08-19T16:44:51;23.10;98.70
4755;DHT22;2391;47.212;7.542;2022-08-19T16:47:17;23.10;98.60
4755;DHT22;2391;47.212;7.542;2022-08-19T16:49:43;23.10;98.50
4755;DHT22;2391;47.212;7.542;2022-08-19T16:52:09;23.00;98.60
4755;DHT22;2391;47.212;7.542;2022-08-19T16:54:36;23.00;98.70
4755;DHT22;2391;47.212;7.542;2022-08-19T16:57:03;23.00;98.70
4755;DHT22;2391;47.212;7.542;2022-08-19T16:59:32;23.00;98.70
4755;DHT22;2391;47.212;7.542;2022-08-19T17:01:59;22.80;98.70